createdAt,value
2022-12-26T00:03:30.873Z,88.88
2022-12-26T00:08:42.644Z,88.73
2022-12-26T00:13:57.950Z,88.72
2022-12-26T00:19:08.112Z,88.78
2022-12-26T00:24:17.651Z,88.86
2022-12-26T00:29:27.602Z,88.71
2022-12-26T00:34:37.417Z,88.57
2022-12-26T00:39:47.609Z,88.47
2022-12-26T00:44:57.314Z,88.50
2022-12-26T00:50:12.450Z,88.54
2022-12-26T00:55:24.799Z,88.44
2022-12-26T01:00:34.686Z,88.35
2022-12-26T01:05:50.005Z,88.31
2022-12-26T01:10:59.917Z,88.39
2022-12-26T01:16:12.338Z,88.32
2022-12-26T01:21:21.971Z,88.40
2022-12-26T01:26:31.578Z,88.44
2022-12-26T01:31:41.252Z,88.47
2022-12-26T01:36:51.006Z,88.71
2022-12-26T01:42:00.646Z,88.66
2022-12-26T01:47:10.348Z,88.55
2022-12-26T01:52:27.808Z,88.53
2022-12-26T01:57:45.953Z,88.57
2022-12-26T02:03:13.708Z,88.57
2022-12-26T02:08:30.850Z,88.56
2022-12-26T02:13:43.323Z,88.60
2022-12-26T02:18:53.230Z,88.57
2022-12-26T02:24:51.036Z,88.56
2022-12-26T02:30:27.727Z,88.61
2022-12-26T02:35:59.443Z,88.71
2022-12-26T02:41:26.853Z,88.74
2022-12-26T02:47:06.484Z,88.68
2022-12-26T02:52:41.150Z,88.62
2022-12-26T02:58:18.538Z,88.61
2022-12-26T03:03:53.189Z,88.60
2022-12-26T03:09:26.804Z,88.65
2022-12-26T03:14:47.320Z,88.76
2022-12-26T03:20:04.355Z,88.90
2022-12-26T03:25:37.064Z,88.79
2022-12-26T03:30:52.970Z,88.74
2022-12-26T03:36:04.535Z,88.79
2022-12-26T03:41:46.008Z,88.77
2022-12-26T03:47:31.204Z,88.79
2022-12-26T03:53:08.886Z,88.85
2022-12-26T03:58:38.923Z,89.00
2022-12-26T04:04:11.418Z,89.12
2022-12-26T04:09:47.906Z,88.93
2022-12-26T04:15:20.863Z,88.99
2022-12-26T04:20:44.243Z,88.96
2022-12-26T04:26:21.667Z,88.93
2022-12-26T04:31:54.659Z,89.30
2022-12-26T04:37:28.746Z,89.43
2022-12-26T04:42:57.669Z,89.36
2022-12-26T04:48:25.557Z,89.23
2022-12-26T04:53:35.489Z,89.40
2022-12-26T04:58:45.117Z,89.67
2022-12-26T05:04:12.352Z,89.49
2022-12-26T05:09:36.062Z,89.62
2022-12-26T05:14:45.798Z,89.55
2022-12-26T05:20:13.587Z,89.56
2022-12-26T05:25:47.506Z,89.69
2022-12-26T05:30:57.502Z,90.00
2022-12-26T05:36:08.014Z,89.75
2022-12-26T05:41:17.984Z,89.69
2022-12-26T05:46:27.642Z,89.57
2022-12-26T05:51:37.768Z,89.56
2022-12-26T05:56:49.473Z,89.38
2022-12-26T06:01:59.772Z,89.38
2022-12-26T06:07:09.683Z,89.43
2022-12-26T06:12:19.770Z,89.45
2022-12-26T06:17:29.574Z,89.46
2022-12-26T06:22:38.976Z,89.58
2022-12-26T06:27:49.497Z,89.49
2022-12-26T06:32:59.287Z,89.49
2022-12-26T06:38:09.132Z,89.50
2022-12-26T06:43:18.915Z,89.36
2022-12-26T06:48:28.900Z,89.47
2022-12-26T06:53:39.283Z,89.54
2022-12-26T06:58:53.962Z,89.48
2022-12-26T07:04:04.591Z,89.44
2022-12-26T07:09:17.804Z,89.57
2022-12-26T07:14:27.736Z,89.47
2022-12-26T07:19:37.607Z,89.67
2022-12-26T07:24:47.229Z,89.71
2022-12-26T07:29:56.960Z,89.69
2022-12-26T07:35:07.279Z,89.75
2022-12-26T07:40:18.044Z,89.90
2022-12-26T07:45:27.633Z,90.01
2022-12-26T07:50:37.522Z,89.93
2022-12-26T07:55:48.751Z,89.96
2022-12-26T08:01:01.940Z,89.78
2022-12-26T08:06:13.026Z,89.61
2022-12-26T08:11:26.200Z,89.54
2022-12-26T08:16:35.983Z,89.42
2022-12-26T08:21:45.634Z,89.42
2022-12-26T08:26:55.273Z,89.36
2022-12-26T08:32:04.820Z,89.39
2022-12-26T08:37:14.416Z,89.38
2022-12-26T08:42:25.262Z,89.35
2022-12-26T08:47:35.076Z,89.36
2022-12-26T08:52:45.048Z,89.40
2022-12-26T08:57:54.661Z,89.41
2022-12-26T09:03:04.216Z,89.40
2022-12-26T09:08:15.526Z,89.50
2022-12-26T09:13:25.068Z,89.49
2022-12-26T09:18:34.800Z,89.42
2022-12-26T09:23:45.291Z,89.39
2022-12-26T09:28:55.789Z,89.31
2022-12-26T09:34:07.438Z,89.34
2022-12-26T09:39:17.139Z,89.51
2022-12-26T09:44:32.564Z,89.79
2022-12-26T09:49:52.468Z,89.93
2022-12-26T09:55:08.353Z,89.89
2022-12-26T10:00:26.949Z,89.82
2022-12-26T10:05:45.754Z,89.96
2022-12-26T10:11:04.555Z,90.04
2022-12-26T10:16:21.646Z,90.08
2022-12-26T10:21:47.304Z,90.01
2022-12-26T10:27:12.469Z,90.38
2022-12-26T10:32:31.315Z,90.33
2022-12-26T10:37:43.982Z,90.32
2022-12-26T10:42:57.304Z,90.18
2022-12-26T10:48:08.981Z,90.10
2022-12-26T10:53:21.116Z,90.09
2022-12-26T10:58:37.650Z,90.07
2022-12-26T11:04:00.150Z,90.18
2022-12-26T11:09:24.378Z,90.28
2022-12-26T11:14:42.859Z,90.24
2022-12-26T11:20:10.839Z,90.26
2022-12-26T11:25:28.421Z,90.31
2022-12-26T11:30:41.847Z,90.46
2022-12-26T11:36:02.258Z,90.57
2022-12-26T11:41:37.021Z,90.57
2022-12-26T11:46:52.631Z,90.57
2022-12-26T11:52:05.115Z,90.57
2022-12-26T11:57:31.455Z,90.57
2022-12-26T12:02:44.627Z,90.57
2022-12-26T12:08:31.972Z,90.60
2022-12-26T12:14:01.729Z,90.60
2022-12-26T12:19:28.771Z,90.74
2022-12-26T12:25:01.797Z,90.69
2022-12-26T12:30:24.618Z,90.78
2022-12-26T12:35:54.563Z,90.87
2022-12-26T12:41:22.961Z,90.86
2022-12-26T12:46:45.381Z,90.99
2022-12-26T12:52:07.906Z,91.06
2022-12-26T12:57:27.603Z,91.11
2022-12-26T13:02:44.704Z,91.10
2022-12-26T13:08:01.979Z,91.06
2022-12-26T13:13:23.623Z,90.96
2022-12-26T13:18:40.055Z,90.78
2022-12-26T13:24:14.117Z,90.57
2022-12-26T13:29:36.023Z,90.56
2022-12-26T13:34:48.915Z,90.66
2022-12-26T13:39:59.432Z,90.65
2022-12-26T13:45:57.594Z,90.61
2022-12-26T13:51:29.510Z,90.64
2022-12-26T13:57:25.465Z,90.66
2022-12-26T14:03:19.195Z,90.42
2022-12-26T14:08:51.317Z,90.11
2022-12-26T14:14:23.525Z,89.94
2022-12-26T14:19:51.803Z,89.75
2022-12-26T14:25:21.346Z,89.61
2022-12-26T14:30:40.567Z,89.53
2022-12-26T14:36:04.746Z,89.58
2022-12-26T14:41:32.422Z,89.51
2022-12-26T14:47:06.611Z,89.61
2022-12-26T14:52:43.606Z,89.78
2022-12-26T14:57:54.946Z,89.77
2022-12-26T15:03:53.664Z,89.78
2022-12-26T15:09:26.381Z,89.60
2022-12-26T15:15:27.989Z,89.40
2022-12-26T15:21:10.879Z,89.24
2022-12-26T15:27:05.265Z,89.08
2022-12-26T15:32:25.599Z,89.02
2022-12-26T15:38:01.344Z,88.90
2022-12-26T15:43:46.666Z,88.85
2022-12-26T15:49:24.075Z,88.83
2022-12-26T15:55:10.704Z,88.76
2022-12-26T16:00:28.388Z,88.73
2022-12-26T16:06:14.690Z,88.79
2022-12-26T16:11:30.842Z,88.83
2022-12-26T16:16:41.732Z,88.83
2022-12-26T16:22:13.343Z,89.00
2022-12-26T16:27:26.843Z,88.96
2022-12-26T16:32:43.021Z,89.00
2022-12-26T16:37:54.646Z,89.08
2022-12-26T16:43:08.819Z,89.10
2022-12-26T16:48:22.186Z,89.16
2022-12-26T16:53:48.601Z,89.26
2022-12-26T16:59:11.509Z,89.24
2022-12-26T17:04:27.996Z,89.14
2022-12-26T17:09:52.428Z,89.16
2022-12-26T17:15:06.576Z,89.21
2022-12-26T17:20:41.719Z,89.21
2022-12-26T17:25:51.543Z,89.17
2022-12-26T17:31:18.198Z,89.10
2022-12-26T17:37:16.341Z,89.07
2022-12-26T17:42:07.554Z,89.23
2022-12-26T17:47:24.397Z,89.36
2022-12-26T17:52:36.038Z,89.51
2022-12-26T17:57:46.262Z,89.75
2022-12-26T18:02:56.746Z,89.74
2022-12-26T18:08:07.635Z,89.75
2022-12-26T18:13:20.424Z,89.86
2022-12-26T18:18:36.267Z,89.84
2022-12-26T18:23:46.548Z,89.90
2022-12-26T18:28:57.356Z,89.90
2022-12-26T18:34:07.088Z,90.01
2022-12-26T18:39:19.825Z,89.92
2022-12-26T18:44:29.694Z,89.90
2022-12-26T18:49:39.338Z,90.00
2022-12-26T18:54:49.121Z,89.99
2022-12-26T18:59:59.052Z,89.88
2022-12-26T19:05:16.330Z,89.90
2022-12-26T19:10:31.927Z,89.87
2022-12-26T19:15:46.093Z,89.81
2022-12-26T19:20:56.231Z,89.74
2022-12-26T19:26:12.003Z,89.78
2022-12-26T19:31:22.397Z,89.76
2022-12-26T19:36:32.529Z,89.75
2022-12-26T19:41:42.134Z,89.64
2022-12-26T19:47:11.026Z,89.59
2022-12-26T19:52:21.932Z,89.50
2022-12-26T19:57:31.974Z,89.37
2022-12-26T20:02:41.807Z,89.32
2022-12-26T20:07:52.257Z,89.28
2022-12-26T20:13:02.138Z,89.23
2022-12-26T20:18:14.862Z,89.13
2022-12-26T20:23:25.271Z,89.04
2022-12-26T20:28:36.199Z,88.94
2022-12-26T20:33:49.900Z,88.89
2022-12-26T20:39:02.558Z,88.86
2022-12-26T20:44:14.037Z,88.76
2022-12-26T20:49:24.030Z,88.64
2022-12-26T20:54:33.844Z,88.63
2022-12-26T20:59:43.813Z,88.60
2022-12-26T21:04:56.116Z,88.58
2022-12-26T21:10:06.397Z,88.54
2022-12-26T21:15:16.316Z,88.48
2022-12-26T21:20:26.032Z,88.43
2022-12-26T21:25:36.842Z,88.43
2022-12-26T21:30:50.831Z,88.54
2022-12-26T21:36:01.102Z,88.61
2022-12-26T21:41:14.299Z,88.67
2022-12-26T21:46:24.735Z,88.63
2022-12-26T21:51:35.123Z,88.69
2022-12-26T21:56:45.011Z,88.63
2022-12-26T22:01:54.830Z,88.56
2022-12-26T22:07:04.754Z,88.50
2022-12-26T22:12:33.306Z,88.50
2022-12-26T22:17:43.092Z,88.46
2022-12-26T22:22:53.183Z,88.42
2022-12-26T22:28:03.584Z,88.39
2022-12-26T22:33:13.488Z,88.48
2022-12-26T22:38:24.009Z,88.51
2022-12-26T22:43:34.300Z,88.67
2022-12-26T22:48:44.033Z,88.50
2022-12-26T22:53:56.796Z,88.40
2022-12-26T22:59:06.675Z,88.45
2022-12-26T23:04:18.170Z,88.42
2022-12-26T23:09:29.970Z,88.29
2022-12-26T23:14:41.074Z,88.32
2022-12-26T23:20:12.861Z,88.29
2022-12-26T23:25:23.357Z,88.40
2022-12-26T23:30:33.166Z,88.39
2022-12-26T23:35:42.970Z,88.34
2022-12-26T23:40:52.759Z,88.31
2022-12-26T23:46:02.705Z,86.79
2022-12-26T23:51:13.072Z,86.66
2022-12-26T23:56:22.783Z,86.61
